sensor_id;sensor_type;location;lat;lon;timestamp;P1;durP1;ratioP1;P2;durP2;ratioP2
40595;SDS011;26304;48.794;9.820;2022-07-23T00:00:17;7.05;;;6.50;;
40595;SDS011;26304;48.794;9.820;2022-07-23T00:06:01;7.30;;;6.68;;
40595;SDS011;26304;48.794;9.820;2022-07-23T00:11:44;8.10;;;7.40;;
40595;SDS011;26304;48.794;9.820;2022-07-23T00:17:26;7.55;;;6.97;;
40595;SDS011;26304;48.794;9.820;2022-07-23T00:23:10;7.60;;;6.85;;
40595;SDS011;26304;48.794;9.820;2022-07-23T00:28:53;7.05;;;6.43;;
40595;SDS011;26304;48.794;9.820;2022-07-23T00:34:35;7.10;;;6.40;;
40595;SDS011;26304;48.794;9.820;2022-07-23T00:40:19;6.82;;;6.30;;
40595;SDS011;26304;48.794;9.820;2022-07-23T00:46:01;6.90;;;6.30;;
40595;SDS011;26304;48.794;9.820;2022-07-23T00:51:44;6.82;;;6.30;;
40595;SDS011;26304;48.794;9.820;2022-07-23T00:57:28;7.03;;;6.43;;
40595;SDS011;26304;48.794;9.820;2022-07-23T01:03:10;6.25;;;5.75;;
40595;SDS011;26304;48.794;9.820;2022-07-23T01:08:53;6.18;;;5.68;;
40595;SDS011;26304;48.794;9.820;2022-07-23T01:14:38;6.38;;;5.88;;
40595;SDS011;26304;48.794;9.820;2022-07-23T01:20:21;6.28;;;5.68;;
40595;SDS011;26304;48.794;9.820;2022-07-23T01:26:04;6.45;;;6.05;;
40595;SDS011;26304;48.794;9.820;2022-07-23T01:31:47;5.68;;;5.30;;
40595;SDS011;26304;48.794;9.820;2022-07-23T01:37:30;6.47;;;5.97;;
40595;SDS011;26304;48.794;9.820;2022-07-23T01:43:14;6.20;;;5.70;;
40595;SDS011;26304;48.794;9.820;2022-07-23T01:48:56;6.10;;;5.70;;
40595;SDS011;26304;48.794;9.820;2022-07-23T01:54:39;6.30;;;5.80;;
40595;SDS011;26304;48.794;9.820;2022-07-23T02:00:23;5.68;;;5.28;;
40595;SDS011;26304;48.794;9.820;2022-07-23T02:06:05;6.35;;;5.82;;
40595;SDS011;26304;48.794;9.820;2022-07-23T02:11:48;5.75;;;5.35;;
40595;SDS011;26304;48.794;9.820;2022-07-23T02:17:31;5.65;;;5.25;;
40595;SDS011;26304;48.794;9.820;2022-07-23T02:23:14;5.63;;;5.13;;
40595;SDS011;26304;48.794;9.820;2022-07-23T02:28:56;6.13;;;5.72;;
40595;SDS011;26304;48.794;9.820;2022-07-23T02:34:40;5.75;;;5.25;;
40595;SDS011;26304;48.794;9.820;2022-07-23T02:40:22;5.32;;;4.93;;
40595;SDS011;26304;48.794;9.820;2022-07-23T02:46:05;5.75;;;5.35;;
40595;SDS011;26304;48.794;9.820;2022-07-23T02:51:49;5.40;;;5.00;;
40595;SDS011;26304;48.794;9.820;2022-07-23T02:57:32;5.80;;;5.30;;
40595;SDS011;26304;48.794;9.820;2022-07-23T03:03:15;5.78;;;5.28;;
40595;SDS011;26304;48.794;9.820;2022-07-23T03:08:58;5.95;;;5.50;;
40595;SDS011;26304;48.794;9.820;2022-07-23T03:14:41;5.55;;;5.15;;
40595;SDS011;26304;48.794;9.820;2022-07-23T03:20:24;6.00;;;5.50;;
40595;SDS011;26304;48.794;9.820;2022-07-23T03:26:07;5.28;;;4.97;;
40595;SDS011;26304;48.794;9.820;2022-07-23T03:31:50;6.05;;;5.65;;
40595;SDS011;26304;48.794;9.820;2022-07-23T03:37:32;5.60;;;5.13;;
40595;SDS011;26304;48.794;9.820;2022-07-23T03:43:16;5.93;;;5.45;;
40595;SDS011;26304;48.794;9.820;2022-07-23T03:48:58;5.97;;;5.30;;
40595;SDS011;26304;48.794;9.820;2022-07-23T03:54:41;5.53;;;5.10;;
40595;SDS011;26304;48.794;9.820;2022-07-23T04:00:25;5.80;;;5.32;;
40595;SDS011;26304;48.794;9.820;2022-07-23T04:06:07;5.57;;;5.18;;
40595;SDS011;26304;48.794;9.820;2022-07-23T04:11:50;6.55;;;6.00;;
40595;SDS011;26304;48.794;9.820;2022-07-23T04:17:33;6.25;;;5.85;;
40595;SDS011;26304;48.794;9.820;2022-07-23T04:23:16;5.72;;;5.25;;
40595;SDS011;26304;48.794;9.820;2022-07-23T04:28:58;6.15;;;5.53;;
40595;SDS011;26304;48.794;9.820;2022-07-23T04:34:42;5.85;;;5.45;;
40595;SDS011;26304;48.794;9.820;2022-07-23T04:40:25;6.07;;;5.50;;
40595;SDS011;26304;48.794;9.820;2022-07-23T04:46:07;6.55;;;6.00;;
40595;SDS011;26304;48.794;9.820;2022-07-23T04:51:52;6.32;;;5.82;;
40595;SDS011;26304;48.794;9.820;2022-07-23T04:57:35;5.72;;;5.40;;
40595;SDS011;26304;48.794;9.820;2022-07-23T05:03:17;5.90;;;5.43;;
40595;SDS011;26304;48.794;9.820;2022-07-23T05:09:01;5.90;;;5.38;;
40595;SDS011;26304;48.794;9.820;2022-07-23T05:14:43;5.75;;;5.35;;
40595;SDS011;26304;48.794;9.820;2022-07-23T05:20:26;6.50;;;5.90;;
40595;SDS011;26304;48.794;9.820;2022-07-23T05:26:10;6.00;;;5.50;;
40595;SDS011;26304;48.794;9.820;2022-07-23T05:31:52;6.22;;;5.72;;
40595;SDS011;26304;48.794;9.820;2022-07-23T05:37:35;5.88;;;5.40;;
40595;SDS011;26304;48.794;9.820;2022-07-23T05:43:19;6.18;;;5.75;;
40595;SDS011;26304;48.794;9.820;2022-07-23T05:49:01;5.82;;;5.43;;
40595;SDS011;26304;48.794;9.820;2022-07-23T05:54:43;6.22;;;5.72;;
40595;SDS011;26304;48.794;9.820;2022-07-23T06:00:27;6.00;;;5.60;;
40595;SDS011;26304;48.794;9.820;2022-07-23T06:06:10;6.10;;;5.68;;
40595;SDS011;26304;48.794;9.820;2022-07-23T06:11:53;6.93;;;5.95;;
40595;SDS011;26304;48.794;9.820;2022-07-23T06:17:37;7.20;;;6.50;;
40595;SDS011;26304;48.794;9.820;2022-07-23T06:23:20;6.75;;;6.25;;
40595;SDS011;26304;48.794;9.820;2022-07-23T06:29:03;6.35;;;5.95;;
40595;SDS011;26304;48.794;9.820;2022-07-23T06:34:46;6.20;;;5.80;;
40595;SDS011;26304;48.794;9.820;2022-07-23T06:40:29;6.25;;;5.75;;
40595;SDS011;26304;48.794;9.820;2022-07-23T06:46:11;6.30;;;5.80;;
40595;SDS011;26304;48.794;9.820;2022-07-23T06:51:55;6.88;;;6.28;;
40595;SDS011;26304;48.794;9.820;2022-07-23T06:57:38;7.38;;;6.78;;
40595;SDS011;26304;48.794;9.820;2022-07-23T07:03:20;7.80;;;7.22;;
40595;SDS011;26304;48.794;9.820;2022-07-23T07:09:04;6.38;;;5.97;;
40595;SDS011;26304;48.794;9.820;2022-07-23T07:14:46;7.30;;;6.47;;
40595;SDS011;26304;48.794;9.820;2022-07-23T07:20:29;6.38;;;5.78;;
40595;SDS011;26304;48.794;9.820;2022-07-23T07:26:13;6.03;;;5.63;;
40595;SDS011;26304;48.794;9.820;2022-07-23T07:31:55;6.45;;;5.95;;
40595;SDS011;26304;48.794;9.820;2022-07-23T07:37:37;6.90;;;6.30;;
40595;SDS011;26304;48.794;9.820;2022-07-23T07:43:21;6.97;;;6.38;;
40595;SDS011;26304;48.794;9.820;2022-07-23T07:49:04;6.18;;;5.57;;
40595;SDS011;26304;48.794;9.820;2022-07-23T07:54:46;7.43;;;6.03;;
40595;SDS011;26304;48.794;9.820;2022-07-23T08:00:30;6.38;;;5.88;;
40595;SDS011;26304;48.794;9.820;2022-07-23T08:06:13;6.25;;;5.75;;
40595;SDS011;26304;48.794;9.820;2022-07-23T08:11:56;6.30;;;5.82;;
40595;SDS011;26304;48.794;9.820;2022-07-23T08:17:40;6.82;;;6.22;;
40595;SDS011;26304;48.794;9.820;2022-07-23T08:23:23;18.20;;;8.70;;
40595;SDS011;26304;48.794;9.820;2022-07-23T08:29:05;11.52;;;8.63;;
40595;SDS011;26304;48.794;9.820;2022-07-23T08:34:49;10.98;;;8.73;;
40595;SDS011;26304;48.794;9.820;2022-07-23T08:40:32;12.30;;;8.98;;
40595;SDS011;26304;48.794;9.820;2022-07-23T08:46:16;10.48;;;8.68;;
40595;SDS011;26304;48.794;9.820;2022-07-23T08:52:02;12.95;;;8.52;;
40595;SDS011;26304;48.794;9.820;2022-07-23T08:57:44;13.13;;;9.50;;
40595;SDS011;26304;48.794;9.820;2022-07-23T09:03:30;12.60;;;9.80;;
40595;SDS011;26304;48.794;9.820;2022-07-23T09:09:18;9.38;;;8.35;;
40595;SDS011;26304;48.794;9.820;2022-07-23T09:15:05;11.60;;;8.82;;
40595;SDS011;26304;48.794;9.820;2022-07-23T09:20:49;10.05;;;7.72;;
40595;SDS011;26304;48.794;9.820;2022-07-23T09:26:34;12.20;;;8.93;;
40595;SDS011;26304;48.794;9.820;2022-07-23T09:32:17;13.43;;;9.35;;
40595;SDS011;26304;48.794;9.820;2022-07-23T09:38:00;11.60;;;9.20;;
40595;SDS011;26304;48.794;9.820;2022-07-23T09:43:45;10.50;;;9.43;;
40595;SDS011;26304;48.794;9.820;2022-07-23T09:49:27;11.57;;;8.95;;
40595;SDS011;26304;48.794;9.820;2022-07-23T09:55:10;10.00;;;7.72;;
40595;SDS011;26304;48.794;9.820;2022-07-23T10:00:54;11.73;;;9.15;;
40595;SDS011;26304;48.794;9.820;2022-07-23T10:06:38;10.45;;;9.38;;
40595;SDS011;26304;48.794;9.820;2022-07-23T10:12:21;11.20;;;8.77;;
40595;SDS011;26304;48.794;9.820;2022-07-23T10:18:23;9.73;;;8.80;;
40595;SDS011;26304;48.794;9.820;2022-07-23T10:24:10;10.80;;;8.30;;
40595;SDS011;26304;48.794;9.820;2022-07-23T10:30:00;10.00;;;8.05;;
40595;SDS011;26304;48.794;9.820;2022-07-23T10:35:50;9.07;;;8.27;;
40595;SDS011;26304;48.794;9.820;2022-07-23T10:41:39;9.60;;;7.97;;
40595;SDS011;26304;48.794;9.820;2022-07-23T10:47:25;8.50;;;7.65;;
40595;SDS011;26304;48.794;9.820;2022-07-23T10:53:31;8.70;;;7.90;;
40595;SDS011;26304;48.794;9.820;2022-07-23T11:05:57;8.10;;;7.40;;
40595;SDS011;26304;48.794;9.820;2022-07-23T11:11:41;8.65;;;7.60;;
40595;SDS011;26304;48.794;9.820;2022-07-23T11:17:26;9.73;;;7.82;;
40595;SDS011;26304;48.794;9.820;2022-07-23T11:23:09;8.60;;;7.90;;
40595;SDS011;26304;48.794;9.820;2022-07-23T11:28:53;8.68;;;7.78;;
40595;SDS011;26304;48.794;9.820;2022-07-23T11:34:41;7.88;;;7.18;;
40595;SDS011;26304;48.794;9.820;2022-07-23T11:40:25;7.93;;;7.15;;
40595;SDS011;26304;48.794;9.820;2022-07-23T11:46:10;8.90;;;8.10;;
40595;SDS011;26304;48.794;9.820;2022-07-23T11:52:02;8.25;;;7.47;;
40595;SDS011;26304;48.794;9.820;2022-07-23T11:57:45;8.23;;;7.43;;
40595;SDS011;26304;48.794;9.820;2022-07-23T12:03:29;7.97;;;7.18;;
40595;SDS011;26304;48.794;9.820;2022-07-23T12:09:12;7.93;;;7.13;;
40595;SDS011;26304;48.794;9.820;2022-07-23T12:14:55;7.97;;;7.18;;
40595;SDS011;26304;48.794;9.820;2022-07-23T12:20:41;8.18;;;7.00;;
40595;SDS011;26304;48.794;9.820;2022-07-23T12:26:25;8.00;;;7.40;;
40595;SDS011;26304;48.794;9.820;2022-07-23T12:32:16;7.57;;;6.90;;
40595;SDS011;26304;48.794;9.820;2022-07-23T12:38:02;7.65;;;6.95;;
40595;SDS011;26304;48.794;9.820;2022-07-23T12:43:46;7.32;;;6.63;;
40595;SDS011;26304;48.794;9.820;2022-07-23T12:49:28;7.40;;;6.80;;
40595;SDS011;26304;48.794;9.820;2022-07-23T13:01:10;7.20;;;6.57;;
40595;SDS011;26304;48.794;9.820;2022-07-23T13:07:03;7.53;;;6.70;;
40595;SDS011;26304;48.794;9.820;2022-07-23T13:12:46;7.25;;;6.55;;
40595;SDS011;26304;48.794;9.820;2022-07-23T13:18:30;7.03;;;6.32;;
40595;SDS011;26304;48.794;9.820;2022-07-23T13:24:12;6.40;;;5.90;;
40595;SDS011;26304;48.794;9.820;2022-07-23T13:29:56;6.88;;;6.28;;
40595;SDS011;26304;48.794;9.820;2022-07-23T13:35:39;6.85;;;6.30;;
40595;SDS011;26304;48.794;9.820;2022-07-23T13:41:22;6.63;;;6.13;;
40595;SDS011;26304;48.794;9.820;2022-07-23T13:47:04;6.85;;;6.25;;
40595;SDS011;26304;48.794;9.820;2022-07-23T13:52:48;6.43;;;5.93;;
40595;SDS011;26304;48.794;9.820;2022-07-23T13:58:31;6.13;;;5.63;;
40595;SDS011;26304;48.794;9.820;2022-07-23T14:04:13;6.85;;;6.15;;
40595;SDS011;26304;48.794;9.820;2022-07-23T14:09:57;7.13;;;6.43;;
40595;SDS011;26304;48.794;9.820;2022-07-23T14:15:42;6.50;;;6.03;;
40595;SDS011;26304;48.794;9.820;2022-07-23T14:21:25;6.35;;;5.72;;
40595;SDS011;26304;48.794;9.820;2022-07-23T14:27:09;6.93;;;6.30;;
40595;SDS011;26304;48.794;9.820;2022-07-23T14:32:53;6.60;;;6.00;;
40595;SDS011;26304;48.794;9.820;2022-07-23T14:38:37;6.43;;;5.82;;
40595;SDS011;26304;48.794;9.820;2022-07-23T14:44:21;6.45;;;5.95;;
40595;SDS011;26304;48.794;9.820;2022-07-23T14:50:04;6.18;;;5.68;;
40595;SDS011;26304;48.794;9.820;2022-07-23T14:55:47;6.25;;;5.75;;
40595;SDS011;26304;48.794;9.820;2022-07-23T15:01:31;6.72;;;6.20;;
40595;SDS011;26304;48.794;9.820;2022-07-23T15:07:14;6.13;;;5.63;;
40595;SDS011;26304;48.794;9.820;2022-07-23T15:12:56;5.93;;;5.53;;
40595;SDS011;26304;48.794;9.820;2022-07-23T15:18:40;6.10;;;5.70;;
40595;SDS011;26304;48.794;9.820;2022-07-23T15:24:22;6.50;;;6.00;;
40595;SDS011;26304;48.794;9.820;2022-07-23T15:30:05;5.47;;;5.07;;
40595;SDS011;26304;48.794;9.820;2022-07-23T15:35:50;6.13;;;5.63;;
40595;SDS011;26304;48.794;9.820;2022-07-23T15:41:36;6.38;;;5.78;;
40595;SDS011;26304;48.794;9.820;2022-07-23T15:47:18;6.22;;;5.82;;
40595;SDS011;26304;48.794;9.820;2022-07-23T15:53:03;6.63;;;6.03;;
40595;SDS011;26304;48.794;9.820;2022-07-23T15:58:46;6.70;;;6.20;;
40595;SDS011;26304;48.794;9.820;2022-07-23T16:04:28;7.28;;;6.10;;
40595;SDS011;26304;48.794;9.820;2022-07-23T16:10:12;6.85;;;6.28;;
40595;SDS011;26304;48.794;9.820;2022-07-23T16:15:55;7.80;;;6.85;;
40595;SDS011;26304;48.794;9.820;2022-07-23T16:21:37;6.15;;;5.75;;
40595;SDS011;26304;48.794;9.820;2022-07-23T16:27:21;6.68;;;6.13;;
40595;SDS011;26304;48.794;9.820;2022-07-23T16:33:03;6.50;;;5.95;;
40595;SDS011;26304;48.794;9.820;2022-07-23T16:38:46;6.80;;;6.38;;
40595;SDS011;26304;48.794;9.820;2022-07-23T16:44:30;7.25;;;6.60;;
40595;SDS011;26304;48.794;9.820;2022-07-23T16:50:13;6.95;;;6.45;;
40595;SDS011;26304;48.794;9.820;2022-07-23T16:55:55;6.05;;;5.65;;
40595;SDS011;26304;48.794;9.820;2022-07-23T17:01:39;7.03;;;6.53;;
40595;SDS011;26304;48.794;9.820;2022-07-23T17:07:21;6.68;;;6.18;;
40595;SDS011;26304;48.794;9.820;2022-07-23T17:13:04;7.50;;;6.80;;
40595;SDS011;26304;48.794;9.820;2022-07-23T17:18:48;7.20;;;6.70;;
40595;SDS011;26304;48.794;9.820;2022-07-23T17:24:30;7.22;;;6.72;;
40595;SDS011;26304;48.794;9.820;2022-07-23T17:30:13;7.05;;;6.53;;
40595;SDS011;26304;48.794;9.820;2022-07-23T17:35:58;7.15;;;6.65;;
40595;SDS011;26304;48.794;9.820;2022-07-23T17:41:40;7.15;;;6.65;;
40595;SDS011;26304;48.794;9.820;2022-07-23T17:47:28;7.35;;;6.85;;
40595;SDS011;26304;48.794;9.820;2022-07-23T17:53:11;7.47;;;6.97;;
40595;SDS011;26304;48.794;9.820;2022-07-23T17:58:54;7.45;;;6.95;;
40595;SDS011;26304;48.794;9.820;2022-07-23T18:04:37;7.15;;;6.65;;
40595;SDS011;26304;48.794;9.820;2022-07-23T18:10:21;7.32;;;6.90;;
40595;SDS011;26304;48.794;9.820;2022-07-23T18:16:03;8.30;;;7.72;;
40595;SDS011;26304;48.794;9.820;2022-07-23T18:21:46;8.90;;;8.30;;
40595;SDS011;26304;48.794;9.820;2022-07-23T18:27:30;8.65;;;7.95;;
40595;SDS011;26304;48.794;9.820;2022-07-23T18:33:13;8.07;;;7.38;;
40595;SDS011;26304;48.794;9.820;2022-07-23T18:38:55;8.73;;;8.02;;
40595;SDS011;26304;48.794;9.820;2022-07-23T18:44:39;8.60;;;8.00;;
40595;SDS011;26304;48.794;9.820;2022-07-23T18:50:22;8.88;;;8.18;;
40595;SDS011;26304;48.794;9.820;2022-07-23T18:56:05;9.07;;;8.30;;
40595;SDS011;26304;48.794;9.820;2022-07-23T19:01:49;8.63;;;7.82;;
40595;SDS011;26304;48.794;9.820;2022-07-23T19:07:31;8.50;;;7.90;;
40595;SDS011;26304;48.794;9.820;2022-07-23T19:13:14;9.05;;;8.45;;
40595;SDS011;26304;48.794;9.820;2022-07-23T19:18:57;9.05;;;8.45;;
40595;SDS011;26304;48.794;9.820;2022-07-23T19:24:40;9.07;;;8.20;;
40595;SDS011;26304;48.794;9.820;2022-07-23T19:30:25;9.60;;;8.80;;
40595;SDS011;26304;48.794;9.820;2022-07-23T19:36:09;8.77;;;8.07;;
40595;SDS011;26304;48.794;9.820;2022-07-23T19:41:51;8.20;;;7.60;;
40595;SDS011;26304;48.794;9.820;2022-07-23T19:47:34;8.77;;;8.07;;
40595;SDS011;26304;48.794;9.820;2022-07-23T19:53:18;9.27;;;8.48;;
40595;SDS011;26304;48.794;9.820;2022-07-23T19:59:00;8.52;;;7.93;;
40595;SDS011;26304;48.794;9.820;2022-07-23T20:04:43;9.65;;;8.85;;
40595;SDS011;26304;48.794;9.820;2022-07-23T20:10:27;9.63;;;8.82;;
40595;SDS011;26304;48.794;9.820;2022-07-23T20:16:09;10.27;;;9.48;;
40595;SDS011;26304;48.794;9.820;2022-07-23T20:21:52;10.02;;;9.27;;
40595;SDS011;26304;48.794;9.820;2022-07-23T20:27:36;9.07;;;8.48;;
40595;SDS011;26304;48.794;9.820;2022-07-23T20:33:19;10.38;;;9.68;;
40595;SDS011;26304;48.794;9.820;2022-07-23T20:39:03;10.48;;;9.35;;
40595;SDS011;26304;48.794;9.820;2022-07-23T20:44:48;9.57;;;8.80;;
40595;SDS011;26304;48.794;9.820;2022-07-23T20:50:31;8.90;;;8.30;;
40595;SDS011;26304;48.794;9.820;2022-07-23T20:56:13;9.98;;;9.18;;
40595;SDS011;26304;48.794;9.820;2022-07-23T21:01:57;9.52;;;8.82;;
40595;SDS011;26304;48.794;9.820;2022-07-23T21:07:40;9.65;;;8.85;;
40595;SDS011;26304;48.794;9.820;2022-07-23T21:13:24;9.85;;;9.05;;
40595;SDS011;26304;48.794;9.820;2022-07-23T21:19:08;9.35;;;8.73;;
40595;SDS011;26304;48.794;9.820;2022-07-23T21:24:50;9.55;;;8.85;;
40595;SDS011;26304;48.794;9.820;2022-07-23T21:30:33;10.05;;;9.07;;
40595;SDS011;26304;48.794;9.820;2022-07-23T21:36:16;10.27;;;9.43;;
40595;SDS011;26304;48.794;9.820;2022-07-23T21:41:59;10.77;;;9.98;;
40595;SDS011;26304;48.794;9.820;2022-07-23T21:47:42;10.52;;;9.48;;
40595;SDS011;26304;48.794;9.820;2022-07-23T21:53:26;10.65;;;9.15;;
40595;SDS011;26304;48.794;9.820;2022-07-23T21:59:08;10.93;;;10.13;;
40595;SDS011;26304;48.794;9.820;2022-07-23T22:04:50;10.70;;;9.73;;
40595;SDS011;26304;48.794;9.820;2022-07-23T22:10:34;10.38;;;9.57;;
40595;SDS011;26304;48.794;9.820;2022-07-23T22:16:17;10.93;;;10.13;;
40595;SDS011;26304;48.794;9.820;2022-07-23T22:21:59;11.82;;;10.82;;
40595;SDS011;26304;48.794;9.820;2022-07-23T22:27:43;11.65;;;10.60;;
40595;SDS011;26304;48.794;9.820;2022-07-23T22:33:26;10.60;;;9.90;;
40595;SDS011;26304;48.794;9.820;2022-07-23T22:39:08;12.18;;;11.20;;
40595;SDS011;26304;48.794;9.820;2022-07-23T22:44:52;11.98;;;11.07;;
40595;SDS011;26304;48.794;9.820;2022-07-23T22:50:34;11.15;;;10.35;;
40595;SDS011;26304;48.794;9.820;2022-07-23T22:56:17;12.25;;;11.25;;
40595;SDS011;26304;48.794;9.820;2022-07-23T23:02:01;12.15;;;11.15;;
40595;SDS011;26304;48.794;9.820;2022-07-23T23:07:43;11.43;;;10.52;;
40595;SDS011;26304;48.794;9.820;2022-07-23T23:13:25;11.32;;;10.52;;
40595;SDS011;26304;48.794;9.820;2022-07-23T23:19:09;11.05;;;10.15;;
40595;SDS011;26304;48.794;9.820;2022-07-23T23:24:52;11.20;;;10.40;;
40595;SDS011;26304;48.794;9.820;2022-07-23T23:30:34;11.65;;;10.73;;
40595;SDS011;26304;48.794;9.820;2022-07-23T23:36:18;11.05;;;10.15;;
40595;SDS011;26304;48.794;9.820;2022-07-23T23:42:00;11.50;;;10.55;;
40595;SDS011;26304;48.794;9.820;2022-07-23T23:47:43;11.50;;;10.60;;
40595;SDS011;26304;48.794;9.820;2022-07-23T23:53:27;11.50;;;10.70;;
40595;SDS011;26304;48.794;9.820;2022-07-23T23:59:09;11.45;;;10.65;;
